createdAt,value
2018-08-04T00:00:37.115Z,204.30
2018-08-04T00:01:37.173Z,205.90
2018-08-04T00:02:37.206Z,204.00
2018-08-04T00:03:37.248Z,219.00
2018-08-04T00:04:37.282Z,201.30
2018-08-04T00:05:37.335Z,235.10
2018-08-04T00:06:37.419Z,238.60
2018-08-04T00:07:37.415Z,249.00
2018-08-04T00:08:37.496Z,246.00
2018-08-04T00:09:37.500Z,251.00
2018-08-04T00:10:37.573Z,217.60
2018-08-04T00:11:37.614Z,225.00
2018-08-04T00:12:37.655Z,233.20
2018-08-04T00:13:37.699Z,232.00
2018-08-04T00:14:37.697Z,240.50
2018-08-04T00:15:37.770Z,221.10
2018-08-04T00:16:37.792Z,234.90
2018-08-04T00:17:37.827Z,243.30
2018-08-04T00:18:37.869Z,226.30
2018-08-04T00:19:37.913Z,234.80
2018-08-04T00:20:37.944Z,238.80
2018-08-04T00:21:37.984Z,251.50
2018-08-04T00:22:38.033Z,232.90
2018-08-04T00:23:38.040Z,215.80
2018-08-04T00:24:38.129Z,215.30
2018-08-04T00:25:38.126Z,207.90
2018-08-04T00:26:38.233Z,208.70
2018-08-04T00:27:38.222Z,213.20
2018-08-04T00:28:38.262Z,209.40
2018-08-04T00:29:38.282Z,230.30
2018-08-04T00:30:38.356Z,223.30
2018-08-04T00:31:38.397Z,255.30
2018-08-04T00:32:38.436Z,237.30
2018-08-04T00:33:38.480Z,220.60
2018-08-04T00:34:38.496Z,232.80
2018-08-04T00:35:38.554Z,219.50
2018-08-04T00:36:38.590Z,217.40
2018-08-04T00:37:38.644Z,205.60
2018-08-04T00:38:38.677Z,212.60
2018-08-04T00:39:38.723Z,217.30
2018-08-04T00:40:38.766Z,222.60
2018-08-04T00:41:38.799Z,248.80
2018-08-04T00:42:38.853Z,240.60
2018-08-04T00:43:38.884Z,257.30
2018-08-04T00:44:38.937Z,246.60
2018-08-04T00:45:38.967Z,221.10
2018-08-04T00:46:39.018Z,225.80
2018-08-04T00:47:39.051Z,221.50
2018-08-04T00:48:39.141Z,227.40
2018-08-04T00:49:39.142Z,227.20
2018-08-04T00:50:39.177Z,242.40
2018-08-04T00:51:39.236Z,246.50
2018-08-04T00:52:39.298Z,236.30
2018-08-04T00:53:39.290Z,274.80
2018-08-04T00:54:39.365Z,261.20
2018-08-04T00:55:39.381Z,270.10
2018-08-04T00:56:39.453Z,239.90
2018-08-04T00:57:39.440Z,233.40
2018-08-04T00:58:39.535Z,246.20
2018-08-04T00:59:39.537Z,237.70
2018-08-04T01:00:39.581Z,244.30
2018-08-04T01:01:39.615Z,235.90
2018-08-04T01:02:39.673Z,242.50
2018-08-04T01:03:39.704Z,235.20
2018-08-04T01:04:39.720Z,227.20
2018-08-04T01:05:39.815Z,210.50
2018-08-04T01:06:39.851Z,226.20
2018-08-04T01:07:39.904Z,231.90
2018-08-04T01:08:39.918Z,218.20
2018-08-04T01:09:39.951Z,239.20
2018-08-04T01:10:39.984Z,246.90
2018-08-04T01:11:40.037Z,246.20
2018-08-04T01:12:40.073Z,246.00
2018-08-04T01:13:40.092Z,235.00
2018-08-04T01:14:40.161Z,238.90
2018-08-04T01:15:40.229Z,228.40
2018-08-04T01:16:40.238Z,214.20
2018-08-04T01:17:40.274Z,237.90
2018-08-04T01:18:40.322Z,224.00
2018-08-04T01:19:40.715Z,217.90
2018-08-04T01:20:40.408Z,238.10
2018-08-04T01:21:40.463Z,269.20
2018-08-04T01:22:40.483Z,286.00
2018-08-04T01:23:40.534Z,279.20
2018-08-04T01:24:40.588Z,293.40
2018-08-04T01:25:40.631Z,289.40
2018-08-04T01:26:40.668Z,275.50
2018-08-04T01:27:40.716Z,274.10
2018-08-04T01:28:40.742Z,243.80
2018-08-04T01:29:40.758Z,305.90
2018-08-04T01:30:40.827Z,244.60
2018-08-04T01:31:40.901Z,230.30
2018-08-04T01:32:40.910Z,230.60
2018-08-04T01:33:40.953Z,240.80
2018-08-04T01:34:40.981Z,265.70
2018-08-04T01:35:41.055Z,239.10
2018-08-04T01:36:41.050Z,243.40
2018-08-04T01:37:41.143Z,253.00
2018-08-04T01:38:41.153Z,257.60
2018-08-04T01:39:41.238Z,245.70
2018-08-04T01:40:41.227Z,254.10
2018-08-04T01:41:41.282Z,250.30
2018-08-04T01:42:41.313Z,249.40
2018-08-04T01:43:41.363Z,232.30
2018-08-04T01:44:41.375Z,225.30
2018-08-04T01:45:41.419Z,242.30
2018-08-04T01:46:41.477Z,251.30
2018-08-04T01:47:41.529Z,248.90
2018-08-04T01:48:41.574Z,260.00
2018-08-04T01:49:41.610Z,259.00
2018-08-04T01:50:41.659Z,267.60
2018-08-04T01:51:41.684Z,235.00
2018-08-04T01:52:41.737Z,252.30
2018-08-04T01:53:41.861Z,267.90
2018-08-04T01:54:41.824Z,260.40
2018-08-04T01:55:41.869Z,252.10
2018-08-04T01:56:41.911Z,245.40
2018-08-04T01:57:41.936Z,232.00
2018-08-04T01:58:41.972Z,241.00
2018-08-04T01:59:42.080Z,249.80
2018-08-04T02:00:42.067Z,258.10
2018-08-04T02:01:42.100Z,241.70
2018-08-04T02:02:42.169Z,248.10
2018-08-04T02:04:42.238Z,301.10
2018-08-04T02:05:42.318Z,294.70
2018-08-04T02:06:42.333Z,262.60
2018-08-04T02:07:42.344Z,282.80
2018-08-04T02:08:42.413Z,261.60
2018-08-04T02:09:42.427Z,258.00
2018-08-04T02:10:42.492Z,259.00
2018-08-04T02:11:42.520Z,230.80
2018-08-04T02:12:42.552Z,244.70
2018-08-04T02:13:42.605Z,236.50
2018-08-04T02:14:42.644Z,228.90
2018-08-04T02:15:42.697Z,239.10
2018-08-04T02:16:42.713Z,237.20
2018-08-04T02:17:42.746Z,229.80
2018-08-04T02:18:42.809Z,233.80
2018-08-04T02:19:42.838Z,244.80
2018-08-04T02:20:42.909Z,265.70
2018-08-04T02:21:42.935Z,252.70
2018-08-04T02:22:42.964Z,245.60
2018-08-04T02:23:43.020Z,237.60
2018-08-04T02:24:43.067Z,248.30
2018-08-04T02:25:43.083Z,233.60
2018-08-04T02:26:43.147Z,240.00
2018-08-04T02:27:43.167Z,242.80
2018-08-04T02:28:43.208Z,239.00
2018-08-04T02:29:43.260Z,234.70
2018-08-04T02:30:43.312Z,244.00
2018-08-04T02:31:43.346Z,257.60
2018-08-04T02:32:43.391Z,251.70
2018-08-04T02:33:43.418Z,264.00
2018-08-04T02:34:43.476Z,240.10
2018-08-04T02:35:43.504Z,249.50
2018-08-04T02:36:43.530Z,248.30
2018-08-04T02:37:43.610Z,239.30
2018-08-04T02:38:43.626Z,246.40
2018-08-04T02:39:43.665Z,249.40
2018-08-04T02:40:43.713Z,247.20
2018-08-04T02:41:43.771Z,235.40
2018-08-04T02:42:43.803Z,238.70
2018-08-04T02:43:43.882Z,235.00
2018-08-04T02:44:43.915Z,235.10
2018-08-04T02:45:43.923Z,231.10
2018-08-04T02:46:43.961Z,233.30
2018-08-04T02:47:44.015Z,225.00
2018-08-04T02:48:44.039Z,227.30
2018-08-04T02:49:44.117Z,233.00
2018-08-04T02:50:44.161Z,217.20
2018-08-04T02:51:44.173Z,233.00
2018-08-04T02:52:44.218Z,225.20
2018-08-04T02:53:44.302Z,227.90
2018-08-04T02:54:44.291Z,228.10
2018-08-04T02:55:44.351Z,242.60
2018-08-04T02:56:44.395Z,227.50
2018-08-04T02:57:44.421Z,236.20
2018-08-04T02:58:44.448Z,222.70
2018-08-04T02:59:44.517Z,235.00
2018-08-04T03:00:44.531Z,220.10
2018-08-04T03:01:44.595Z,226.30
2018-08-04T03:02:44.607Z,233.60
2018-08-04T03:03:44.656Z,247.90
2018-08-04T03:04:44.719Z,225.70
2018-08-04T03:05:44.783Z,233.40
2018-08-04T03:06:44.798Z,243.50
2018-08-04T03:07:44.841Z,247.80
2018-08-04T03:08:44.882Z,243.40
2018-08-04T03:09:44.922Z,235.20
2018-08-04T03:10:44.965Z,226.50
2018-08-04T03:11:45.016Z,229.30
2018-08-04T03:12:45.101Z,244.10
2018-08-04T03:13:45.111Z,240.40
2018-08-04T03:14:45.134Z,238.30
2018-08-04T03:15:45.178Z,238.80
2018-08-04T03:16:45.429Z,253.70
2018-08-04T03:17:45.265Z,241.90
2018-08-04T03:18:45.334Z,236.90
2018-08-04T03:19:45.362Z,247.60
2018-08-04T03:20:45.372Z,234.90
2018-08-04T03:21:45.442Z,238.70
2018-08-04T03:22:45.458Z,237.20
2018-08-04T03:23:45.517Z,233.30
2018-08-04T03:24:45.596Z,221.50
2018-08-04T03:25:45.634Z,235.80
2018-08-04T03:26:45.648Z,235.00
2018-08-04T03:27:45.739Z,237.50
2018-08-04T03:28:45.729Z,247.90
2018-08-04T03:29:45.784Z,224.70
2018-08-04T03:30:45.830Z,240.30
2018-08-04T03:31:45.882Z,226.30
2018-08-04T03:32:45.864Z,231.60
2018-08-04T03:33:45.948Z,244.90
2018-08-04T03:34:45.985Z,227.00
2018-08-04T03:35:46.032Z,224.70
2018-08-04T03:36:46.041Z,240.20
2018-08-04T03:37:46.087Z,242.10
2018-08-04T03:38:46.146Z,261.40
2018-08-04T03:39:46.173Z,234.50
2018-08-04T03:40:46.217Z,240.40
2018-08-04T03:41:46.261Z,245.50
2018-08-04T03:42:46.298Z,251.00
2018-08-04T03:43:46.373Z,230.60
2018-08-04T03:44:46.383Z,220.40
2018-08-04T03:45:46.410Z,214.90
2018-08-04T03:46:46.489Z,223.00
2018-08-04T03:47:46.517Z,221.70
2018-08-04T03:48:46.603Z,218.40
2018-08-04T03:49:46.786Z,216.00
2018-08-04T03:50:46.652Z,216.90
2018-08-04T03:51:46.659Z,227.20
2018-08-04T03:52:46.712Z,215.50
2018-08-04T03:53:46.771Z,222.60
2018-08-04T03:54:46.839Z,220.30
2018-08-04T03:55:46.877Z,235.70
2018-08-04T03:56:46.886Z,256.50
2018-08-04T03:57:46.912Z,244.00
2018-08-04T03:58:47.022Z,235.90
2018-08-04T03:59:47.051Z,242.50
2018-08-04T04:00:47.076Z,244.70
2018-08-04T04:01:47.125Z,222.00
2018-08-04T04:02:47.147Z,236.90
2018-08-04T04:03:47.161Z,233.40
2018-08-04T04:04:47.209Z,247.40
2018-08-04T04:05:47.253Z,237.50
2018-08-04T04:06:47.309Z,236.00
2018-08-04T04:07:47.350Z,219.40
2018-08-04T04:08:47.401Z,215.40
2018-08-04T04:09:47.435Z,218.70
2018-08-04T04:10:47.461Z,242.10
2018-08-04T04:11:47.514Z,240.40
2018-08-04T04:12:47.593Z,253.70
2018-08-04T04:13:47.578Z,223.30
2018-08-04T04:14:47.642Z,198.30
2018-08-04T04:15:47.689Z,263.40
2018-08-04T04:16:47.699Z,282.50
2018-08-04T04:17:47.767Z,243.00
2018-08-04T04:18:47.790Z,247.50
2018-08-04T04:19:48.021Z,222.10
2018-08-04T04:20:47.873Z,257.80
2018-08-04T04:21:47.967Z,248.50
2018-08-04T04:22:47.975Z,239.10
2018-08-04T04:23:48.008Z,243.50
2018-08-04T04:24:48.040Z,249.20
2018-08-04T04:25:48.089Z,225.60
2018-08-04T04:26:48.145Z,267.80
2018-08-04T04:27:48.192Z,273.90
2018-08-04T04:28:48.216Z,247.30
2018-08-04T04:29:48.267Z,265.20
2018-08-04T04:30:48.277Z,279.50
2018-08-04T04:31:48.337Z,270.50
2018-08-04T04:32:48.365Z,265.70
2018-08-04T04:33:48.424Z,252.00
2018-08-04T04:34:48.454Z,225.10
2018-08-04T04:35:48.501Z,250.80
2018-08-04T04:36:48.589Z,242.50
2018-08-04T04:37:48.642Z,285.00
2018-08-04T04:38:48.598Z,280.10
2018-08-04T04:39:48.660Z,263.80
2018-08-04T04:40:48.689Z,315.50
2018-08-04T04:41:48.755Z,235.80
2018-08-04T04:42:48.786Z,229.00
2018-08-04T04:43:48.832Z,264.30
2018-08-04T04:44:48.911Z,258.80
2018-08-04T04:45:48.909Z,237.80
2018-08-04T04:46:48.942Z,228.60
2018-08-04T04:47:48.988Z,265.10
2018-08-04T04:48:49.027Z,275.90
2018-08-04T04:49:49.085Z,276.10
2018-08-04T04:50:49.106Z,282.10
2018-08-04T04:51:49.169Z,286.50
2018-08-04T04:52:49.186Z,281.00
2018-08-04T04:53:49.211Z,260.60
2018-08-04T04:54:49.328Z,320.70
2018-08-04T04:55:49.335Z,291.90
2018-08-04T04:56:49.381Z,331.00
2018-08-04T04:57:49.409Z,272.30
2018-08-04T04:58:49.416Z,285.70
2018-08-04T04:59:49.483Z,316.30
2018-08-04T05:00:49.504Z,290.40
2018-08-04T05:01:49.562Z,310.50
2018-08-04T05:02:49.627Z,253.40
2018-08-04T05:03:49.642Z,277.50
2018-08-04T05:04:49.917Z,266.80
2018-08-04T05:05:49.736Z,268.60
2018-08-04T05:06:49.762Z,255.10
2018-08-04T05:07:49.797Z,269.70
2018-08-04T05:08:49.935Z,270.40
2018-08-04T05:09:49.921Z,271.40
2018-08-04T05:10:49.950Z,268.70
2018-08-04T05:11:50.028Z,256.40
2018-08-04T05:12:50.040Z,257.40
2018-08-04T05:13:50.054Z,261.30
2018-08-04T05:14:50.100Z,277.30
2018-08-04T05:15:50.139Z,263.40
2018-08-04T05:16:50.399Z,256.80
2018-08-04T05:17:50.207Z,251.10
2018-08-04T05:18:50.263Z,264.20
2018-08-04T05:19:50.309Z,272.20
2018-08-04T05:20:50.363Z,284.70
2018-08-04T05:21:50.393Z,286.00
2018-08-04T05:22:50.452Z,280.80
2018-08-04T05:23:50.451Z,275.30
2018-08-04T05:24:50.502Z,263.40
2018-08-04T05:25:50.581Z,270.60
2018-08-04T05:26:50.622Z,269.30
2018-08-04T05:27:50.649Z,258.90
2018-08-04T05:28:50.978Z,275.50
2018-08-04T05:29:50.687Z,270.40
2018-08-04T05:30:50.780Z,271.00
2018-08-04T05:31:50.775Z,275.40
2018-08-04T05:32:50.857Z,278.80
2018-08-04T05:33:50.883Z,285.10
2018-08-04T05:34:50.916Z,295.10
2018-08-04T05:35:50.998Z,283.60
2018-08-04T05:36:51.014Z,281.10
2018-08-04T05:37:51.043Z,302.50
2018-08-04T05:38:51.079Z,270.40
2018-08-04T05:39:51.341Z,274.00
2018-08-04T05:40:51.205Z,282.60
2018-08-04T05:41:51.271Z,288.20
2018-08-04T05:42:51.256Z,286.30
2018-08-04T05:43:51.325Z,275.00
2018-08-04T05:44:51.337Z,287.50
2018-08-04T05:45:51.370Z,272.30
2018-08-04T05:46:51.416Z,287.30
2018-08-04T05:47:51.500Z,285.40
2018-08-04T05:48:51.489Z,294.80
2018-08-04T05:49:51.588Z,296.30
2018-08-04T05:50:51.577Z,283.20
2018-08-04T05:51:51.874Z,301.60
2018-08-04T05:52:51.723Z,308.30
2018-08-04T05:53:51.711Z,303.30
2018-08-04T05:54:51.738Z,294.30
2018-08-04T05:55:51.769Z,271.50
2018-08-04T05:56:51.845Z,307.40
2018-08-04T05:57:51.888Z,294.10
2018-08-04T05:58:51.935Z,304.60
2018-08-04T05:59:51.962Z,312.30
2018-08-04T06:00:52.003Z,319.40
2018-08-04T06:01:52.049Z,338.20
2018-08-04T06:02:52.121Z,315.20
2018-08-04T06:03:52.353Z,298.80
2018-08-04T06:04:52.201Z,320.90
2018-08-04T06:05:52.216Z,325.80
2018-08-04T06:06:52.272Z,320.00
2018-08-04T06:07:52.311Z,307.80
2018-08-04T06:08:52.341Z,305.40
2018-08-04T06:09:52.407Z,319.00
2018-08-04T06:10:52.495Z,314.00
2018-08-04T06:11:52.480Z,320.50
2018-08-04T06:12:52.513Z,310.90
2018-08-04T06:13:52.562Z,295.00
2018-08-04T06:14:52.785Z,312.90
2018-08-04T06:15:52.664Z,312.90
2018-08-04T06:16:52.699Z,325.40
2018-08-04T06:17:52.711Z,320.00
2018-08-04T06:18:52.793Z,333.50
2018-08-04T06:19:52.802Z,323.40
2018-08-04T06:20:52.821Z,338.70
2018-08-04T06:21:52.888Z,341.00
2018-08-04T06:22:52.946Z,332.60
2018-08-04T06:23:53.016Z,339.00
2018-08-04T06:24:53.035Z,337.40
2018-08-04T06:25:53.057Z,328.20
2018-08-04T06:26:53.082Z,330.50
2018-08-04T06:27:53.151Z,331.00
2018-08-04T06:28:53.178Z,323.70
2018-08-04T06:29:53.433Z,322.60
2018-08-04T06:30:53.258Z,341.40
2018-08-04T06:31:53.344Z,353.20
2018-08-04T06:32:53.343Z,345.20
2018-08-04T06:33:53.398Z,344.30
2018-08-04T06:34:53.433Z,350.40
2018-08-04T06:35:53.486Z,353.30
2018-08-04T06:36:53.531Z,367.00
2018-08-04T06:37:53.576Z,356.40
2018-08-04T06:38:53.628Z,344.10
2018-08-04T06:39:53.672Z,355.50
2018-08-04T06:40:53.672Z,368.00
2018-08-04T06:41:53.732Z,378.90
2018-08-04T06:42:53.772Z,372.20
2018-08-04T06:43:53.810Z,371.30
2018-08-04T06:44:54.089Z,344.00
2018-08-04T06:45:53.887Z,360.30
2018-08-04T06:46:53.959Z,358.10
2018-08-04T06:47:54.024Z,357.40
2018-08-04T06:48:54.021Z,360.30
2018-08-04T06:49:54.071Z,362.50
2018-08-04T06:50:54.121Z,373.30
2018-08-04T06:51:54.172Z,369.10
2018-08-04T06:52:54.252Z,362.20
2018-08-04T06:53:54.287Z,359.10
2018-08-04T06:54:54.283Z,370.50
2018-08-04T06:55:54.309Z,363.40
2018-08-04T06:56:54.566Z,352.60
2018-08-04T06:57:54.402Z,357.20
2018-08-04T06:58:54.457Z,376.50
2018-08-04T06:59:54.471Z,357.30
2018-08-04T07:00:54.523Z,385.80
2018-08-04T07:01:54.575Z,386.50
2018-08-04T07:02:54.669Z,379.10
2018-08-04T07:03:54.662Z,371.00
2018-08-04T07:04:54.692Z,404.60
2018-08-04T07:05:54.757Z,381.50
2018-08-04T07:06:54.776Z,362.80
2018-08-04T07:07:54.848Z,372.90
2018-08-04T07:08:54.869Z,365.90
2018-08-04T07:09:54.916Z,371.90
2018-08-04T07:10:54.970Z,386.70
2018-08-04T07:11:55.183Z,386.50
2018-08-04T07:12:55.026Z,378.00
2018-08-04T07:13:55.121Z,387.80
2018-08-04T07:14:55.124Z,377.20
2018-08-04T07:15:55.169Z,378.10
2018-08-04T07:16:55.210Z,387.00
2018-08-04T07:17:55.248Z,375.10
2018-08-04T07:18:55.295Z,366.80
2018-08-04T07:19:55.328Z,368.50
2018-08-04T07:20:55.421Z,360.50
2018-08-04T07:21:55.418Z,372.50
2018-08-04T07:22:55.653Z,373.00
2018-08-04T07:23:55.527Z,369.40
2018-08-04T07:24:55.543Z,371.10
2018-08-04T07:25:55.580Z,366.40
2018-08-04T07:26:55.645Z,379.10
2018-08-04T07:27:55.675Z,368.30
2018-08-04T07:28:55.820Z,364.20
2018-08-04T07:29:55.770Z,365.40
2018-08-04T07:30:55.802Z,373.60
2018-08-04T07:31:55.863Z,364.60
2018-08-04T07:32:55.890Z,367.80
2018-08-04T07:33:55.944Z,357.40
2018-08-04T07:34:56.225Z,348.30
2018-08-04T07:35:56.019Z,344.70
2018-08-04T07:36:56.046Z,347.20
2018-08-04T07:37:56.077Z,343.60
2018-08-04T07:38:56.141Z,350.70
2018-08-04T07:39:56.178Z,351.20
2018-08-04T07:40:56.262Z,337.70
2018-08-04T07:41:56.282Z,352.30
2018-08-04T07:42:56.351Z,351.90
2018-08-04T07:43:56.344Z,349.90
2018-08-04T07:44:56.411Z,353.10
2018-08-04T07:45:56.433Z,353.60
2018-08-04T07:46:56.677Z,355.00
2018-08-04T07:47:56.510Z,352.10
2018-08-04T07:48:56.560Z,348.40
2018-08-04T07:49:56.594Z,338.50
2018-08-04T07:50:56.639Z,350.40
2018-08-04T07:51:56.694Z,360.00
2018-08-04T07:52:56.731Z,342.00
2018-08-04T07:53:56.759Z,341.30
2018-08-04T07:54:56.816Z,345.30
2018-08-04T07:55:56.882Z,347.50
2018-08-04T07:56:57.111Z,339.20
2018-08-04T07:57:56.988Z,347.10
2018-08-04T07:58:56.992Z,362.60
2018-08-04T07:59:57.021Z,357.80
2018-08-04T08:00:57.082Z,348.00
2018-08-04T08:01:57.108Z,358.60
2018-08-04T08:02:57.128Z,363.20
2018-08-04T08:03:57.212Z,362.50
2018-08-04T08:04:57.272Z,364.80
2018-08-04T08:05:57.294Z,344.70
2018-08-04T08:06:57.348Z,339.00
2018-08-04T08:07:57.351Z,341.40
2018-08-04T08:08:57.386Z,347.00
2018-08-04T08:09:57.465Z,347.10
2018-08-04T08:10:57.589Z,342.00
2018-08-04T08:11:57.533Z,348.00
2018-08-04T08:12:57.575Z,344.70
2018-08-04T08:13:57.611Z,347.00
2018-08-04T08:14:57.620Z,349.90
2018-08-04T08:15:57.721Z,337.10
2018-08-04T08:16:57.747Z,335.40
2018-08-04T08:17:57.784Z,343.70
2018-08-04T08:18:57.827Z,371.10
2018-08-04T08:19:57.871Z,362.40
2018-08-04T08:20:57.903Z,352.60
2018-08-04T08:21:58.132Z,361.40
2018-08-04T08:22:58.006Z,342.50
2018-08-04T08:23:58.039Z,343.30
2018-08-04T08:24:58.097Z,364.00
2018-08-04T08:25:58.107Z,357.60
2018-08-04T08:26:58.157Z,338.60
2018-08-04T08:27:58.201Z,330.80
2018-08-04T08:28:58.270Z,338.00
2018-08-04T08:29:58.290Z,321.20
2018-08-04T08:30:58.324Z,332.00
2018-08-04T08:31:58.373Z,342.90
2018-08-04T08:32:58.611Z,348.90
2018-08-04T08:33:58.476Z,348.20
2018-08-04T08:34:58.474Z,371.40
2018-08-04T08:35:58.532Z,369.20
2018-08-04T08:36:58.590Z,347.70
2018-08-04T08:37:58.609Z,352.80
2018-08-04T08:38:58.656Z,334.40
2018-08-04T08:39:58.730Z,344.80
2018-08-04T08:40:58.768Z,335.10
2018-08-04T08:41:58.769Z,325.90
2018-08-04T08:42:58.834Z,326.50
2018-08-04T08:43:59.059Z,311.10
2018-08-04T08:44:58.916Z,300.10
2018-08-04T08:45:58.937Z,311.90
2018-08-04T08:46:59.034Z,293.50
2018-08-04T08:47:59.040Z,300.30
2018-08-04T08:48:59.084Z,308.40
2018-08-04T08:49:59.132Z,292.10
2018-08-04T08:50:59.181Z,276.30
2018-08-04T08:51:59.230Z,315.50
2018-08-04T08:52:59.246Z,306.30
2018-08-04T08:53:59.342Z,301.80
2018-08-04T08:54:59.317Z,314.40
2018-08-04T08:55:59.635Z,302.20
2018-08-04T08:56:59.402Z,320.20
2018-08-04T08:57:59.445Z,323.00
2018-08-04T08:58:59.488Z,309.60
2018-08-04T08:59:59.528Z,329.90
2018-08-04T09:00:59.588Z,332.30
2018-08-04T09:01:59.628Z,309.20
2018-08-04T09:02:59.632Z,304.90
2018-08-04T09:03:59.702Z,344.20
2018-08-04T09:04:59.750Z,331.80
2018-08-04T09:05:59.785Z,319.30
2018-08-04T09:07:00.037Z,322.30
2018-08-04T09:07:59.864Z,315.70
2018-08-04T09:08:59.894Z,297.10
2018-08-04T09:09:59.974Z,321.90
2018-08-04T09:11:00.000Z,305.60
2018-08-04T09:12:00.026Z,310.80
2018-08-04T09:13:00.055Z,300.70
2018-08-04T09:14:00.133Z,308.60
2018-08-04T09:15:00.169Z,299.80
2018-08-04T09:16:00.212Z,320.20
2018-08-04T09:17:00.247Z,310.60
2018-08-04T09:18:00.473Z,311.70
2018-08-04T09:19:00.316Z,297.60
2018-08-04T09:20:00.398Z,289.40
2018-08-04T09:21:00.424Z,303.10
2018-08-04T09:22:00.457Z,290.00
2018-08-04T09:23:00.490Z,292.40
2018-08-04T09:24:00.519Z,278.80
2018-08-04T09:25:00.588Z,302.50
2018-08-04T09:26:00.614Z,299.90
2018-08-04T09:27:00.653Z,300.70
2018-08-04T09:28:00.693Z,301.20
2018-08-04T09:29:00.737Z,297.30
2018-08-04T09:30:00.775Z,304.60
2018-08-04T09:31:00.820Z,289.80
2018-08-04T09:32:00.867Z,284.40
2018-08-04T09:33:00.938Z,267.80
2018-08-04T09:34:00.979Z,275.30
2018-08-04T09:35:01.001Z,273.20
2018-08-04T09:36:01.008Z,257.10
2018-08-04T09:37:01.037Z,243.80
2018-08-04T09:38:01.126Z,246.90
2018-08-04T09:39:01.157Z,236.10
2018-08-04T09:40:01.183Z,251.80
2018-08-04T09:41:01.234Z,243.40
2018-08-04T09:42:01.263Z,249.60
2018-08-04T09:43:01.332Z,248.10
2018-08-04T09:44:01.387Z,248.70
2018-08-04T09:45:01.401Z,252.50
2018-08-04T09:46:01.429Z,246.80
2018-08-04T09:47:01.488Z,250.20
2018-08-04T09:48:01.581Z,250.40
2018-08-04T09:49:01.560Z,239.30
2018-08-04T09:50:01.610Z,236.90
2018-08-04T09:51:01.658Z,234.70
2018-08-04T09:52:01.712Z,217.80
2018-08-04T09:53:01.718Z,241.70
2018-08-04T09:54:01.784Z,233.90
2018-08-04T09:55:01.819Z,249.30
2018-08-04T09:56:01.872Z,239.60
2018-08-04T09:57:02.132Z,247.40
2018-08-04T09:58:01.931Z,241.20
2018-08-04T09:59:01.960Z,250.50
2018-08-04T10:00:02.027Z,231.30
2018-08-04T10:01:02.073Z,254.80
2018-08-04T10:02:02.101Z,267.20
2018-08-04T10:03:02.132Z,262.60
2018-08-04T10:04:02.219Z,257.30
2018-08-04T10:05:02.299Z,261.70
2018-08-04T10:06:02.294Z,267.20
2018-08-04T10:07:02.339Z,276.00
2018-08-04T10:08:02.377Z,281.50
2018-08-04T10:09:02.652Z,287.30
2018-08-04T10:10:02.436Z,290.70
2018-08-04T10:11:02.481Z,276.70
2018-08-04T10:12:02.578Z,294.30
2018-08-04T10:13:02.568Z,305.90
2018-08-04T10:14:02.591Z,301.70
2018-08-04T10:15:02.655Z,324.80
2018-08-04T10:16:02.699Z,334.30
2018-08-04T10:17:02.741Z,331.50
2018-08-04T10:18:02.780Z,327.40
2018-08-04T10:19:02.826Z,341.50
2018-08-04T10:20:02.884Z,354.40
2018-08-04T10:21:03.073Z,362.30
2018-08-04T10:22:02.962Z,367.70
2018-08-04T10:23:02.984Z,360.30
2018-08-04T10:24:03.089Z,376.80
2018-08-04T10:25:03.060Z,381.80
2018-08-04T10:26:03.208Z,393.20
2018-08-04T10:27:03.151Z,383.80
2018-08-04T10:28:03.215Z,394.80
2018-08-04T10:29:03.254Z,390.60
2018-08-04T10:30:03.272Z,377.80
2018-08-04T10:31:03.328Z,377.40
2018-08-04T10:32:03.479Z,374.20
2018-08-04T10:33:03.420Z,382.80
2018-08-04T10:34:03.486Z,380.70
2018-08-04T10:35:03.518Z,323.90
2018-08-04T10:36:03.557Z,281.00
2018-08-04T10:37:03.599Z,276.90
2018-08-04T10:38:03.672Z,253.40
2018-08-04T10:39:03.702Z,208.40
2018-08-04T10:40:03.765Z,234.60
2018-08-04T10:41:03.737Z,198.00
2018-08-04T10:42:03.809Z,172.50
2018-08-04T10:43:03.885Z,144.80
2018-08-04T10:44:03.967Z,141.10
2018-08-04T10:45:03.935Z,155.80
2018-08-04T10:46:03.998Z,128.30
2018-08-04T10:47:04.017Z,136.00
2018-08-04T10:48:04.056Z,140.30
2018-08-04T10:49:04.101Z,138.40
2018-08-04T10:50:04.395Z,134.90
2018-08-04T10:51:04.200Z,143.90
2018-08-04T10:52:04.270Z,148.90
2018-08-04T10:53:04.282Z,161.60
2018-08-04T10:54:04.337Z,172.90
2018-08-04T10:55:04.404Z,163.30
2018-08-04T10:56:04.403Z,165.00
2018-08-04T10:57:04.506Z,176.60
2018-08-04T10:58:04.528Z,166.40
2018-08-04T10:59:04.573Z,146.00
2018-08-04T11:00:04.632Z,161.80
2018-08-04T11:01:04.830Z,155.50
2018-08-04T11:02:04.681Z,161.00
2018-08-04T11:03:04.730Z,163.60
2018-08-04T11:04:04.790Z,167.80
2018-08-04T11:05:04.830Z,162.20
2018-08-04T11:06:04.865Z,170.10
2018-08-04T11:07:04.969Z,170.80
2018-08-04T11:08:05.013Z,169.90
2018-08-04T11:09:05.016Z,165.90
2018-08-04T11:10:05.058Z,170.30
2018-08-04T11:11:05.116Z,174.10
2018-08-04T11:12:05.160Z,176.60
2018-08-04T11:13:05.204Z,181.70
2018-08-04T11:14:05.257Z,186.10
2018-08-04T11:15:05.300Z,143.40
2018-08-04T11:16:05.310Z,143.10
2018-08-04T11:17:05.379Z,127.70
2018-08-04T11:18:05.488Z,151.50
2018-08-04T11:19:05.487Z,155.00
2018-08-04T11:20:05.546Z,153.30
2018-08-04T11:21:05.777Z,131.20
2018-08-04T11:22:05.608Z,160.20
2018-08-04T11:23:05.670Z,140.00
2018-08-04T11:24:05.721Z,106.70
2018-08-04T11:25:05.756Z,125.70
2018-08-04T11:26:05.796Z,136.10
2018-08-04T11:27:06.083Z,119.50
2018-08-04T11:28:05.934Z,138.40
2018-08-04T11:29:05.926Z,123.30
2018-08-04T11:30:05.987Z,135.00
2018-08-04T11:31:06.016Z,114.30
2018-08-04T11:32:06.068Z,129.60
2018-08-04T11:33:06.141Z,131.30
2018-08-04T11:34:06.167Z,141.30
2018-08-04T11:35:06.196Z,127.30
2018-08-04T11:36:06.274Z,134.20
2018-08-04T11:37:06.305Z,119.20
2018-08-04T11:38:06.363Z,128.30
2018-08-04T11:39:06.407Z,128.00
2018-08-04T11:40:06.443Z,135.20
2018-08-04T11:41:06.461Z,140.80
2018-08-04T11:42:06.570Z,150.90
2018-08-04T11:43:06.604Z,137.00
2018-08-04T11:44:06.638Z,164.40
2018-08-04T11:45:06.692Z,195.40
2018-08-04T11:46:06.736Z,192.10
2018-08-04T11:47:06.773Z,179.60
2018-08-04T11:48:06.817Z,218.50
2018-08-04T11:49:06.870Z,196.80
2018-08-04T11:50:06.913Z,112.60
2018-08-04T11:51:06.980Z,122.60
2018-08-04T11:52:07.025Z,102.60
2018-08-04T11:53:07.051Z,109.20
2018-08-04T11:54:07.100Z,125.40
2018-08-04T11:55:07.161Z,118.90
2018-08-04T11:56:07.225Z,118.20
2018-08-04T11:57:07.255Z,109.60
2018-08-04T11:58:07.322Z,118.30
2018-08-04T11:59:07.370Z,114.20
2018-08-04T12:00:07.410Z,116.40
2018-08-04T12:01:07.481Z,112.60
2018-08-04T12:02:07.536Z,114.50
2018-08-04T12:03:07.572Z,101.10
2018-08-04T12:04:07.617Z,88.70
2018-08-04T12:05:07.640Z,82.00
2018-08-04T12:06:07.716Z,71.30
2018-08-04T12:07:07.763Z,91.90
2018-08-04T12:08:07.822Z,75.60
2018-08-04T12:09:07.878Z,97.40
2018-08-04T12:10:08.021Z,126.20
2018-08-04T12:11:08.044Z,139.40
2018-08-04T12:12:08.030Z,190.30
2018-08-04T12:13:08.090Z,210.30
2018-08-04T12:14:08.136Z,187.50
2018-08-04T12:15:08.348Z,162.70
2018-08-04T12:16:08.225Z,110.90
2018-08-04T12:17:08.281Z,135.50
2018-08-04T12:18:08.384Z,117.60
2018-08-04T12:19:08.390Z,138.50
2018-08-04T12:20:08.460Z,137.00
2018-08-04T12:21:08.489Z,122.90
2018-08-04T12:22:08.520Z,127.80
2018-08-04T12:23:08.574Z,138.60
2018-08-04T12:24:08.703Z,133.30
2018-08-04T12:25:08.696Z,135.40
2018-08-04T12:26:08.776Z,130.20
2018-08-04T12:27:08.814Z,128.60
2018-08-04T12:28:08.863Z,136.20
2018-08-04T12:29:08.948Z,136.40
2018-08-04T12:30:08.945Z,144.00